Time;durP1;ratioP1;P1;durP2;ratioP2;P2;SDS_P1;SDS_P2;PMS_P1;PMS_P2;Temp;Humidity;BMP_temperature;BMP_pressure;BME280_temperature;BME280_humidity;BME280_pressure;Samples;Min_cycle;Max_cycle;Signal;HPM_P1;HPM_P2
2022/04/10 00:01:24;;;;;;;16.13;4.38;;;;;;;5.06;63.25;99262.69;5142402;28;20051;-67
2022/04/10 00:04:15;;;;;;;11.15;4.40;;;;;;;5.02;63.23;99253.34;5127230;28;20185;-67
2022/04/10 00:07:05;;;;;;;10.88;4.57;;;;;;;5.23;63.09;99265.97;5142010;28;20113;-68
2022/04/10 00:09:55;;;;;;;11.25;3.70;;;;;;;5.08;63.44;99260.81;5142319;28;20053;-67
2022/04/10 00:12:45;;;;;;;11.45;4.53;;;;;;;5.05;63.36;99262.81;5127823;28;20117;-67
2022/04/10 00:15:36;;;;;;;5.88;4.00;;;;;;;5.12;63.70;99264.91;5142018;28;20138;-67
2022/04/10 00:18:26;;;;;;;9.30;3.92;;;;;;;4.95;63.28;99270.47;5142064;28;20061;-67
2022/04/10 00:21:17;;;;;;;9.40;4.32;;;;;;;4.95;64.08;99279.19;5141905;28;20058;-69
2022/04/10 00:24:07;;;;;;;9.35;4.25;;;;;;;5.00;63.39;99273.66;5141992;28;20055;-69
2022/04/10 00:26:58;;;;;;;7.25;4.13;;;;;;;4.85;63.25;99278.13;5107602;29;20146;-69
2022/04/10 00:29:49;;;;;;;10.55;4.40;;;;;;;4.78;63.37;99289.97;5107629;28;20059;-69
2022/04/10 00:32:44;;;;;;;12.00;3.63;;;;;;;4.45;64.89;99266.72;5124197;28;20145;-69
2022/04/10 00:35:35;;;;;;;10.80;3.90;;;;;;;4.67;64.49;99274.91;5141843;28;20055;-69
2022/04/10 00:38:26;;;;;;;8.38;3.72;;;;;;;4.50;64.65;99274.28;5141704;28;20051;-69
2022/04/10 00:41:16;;;;;;;10.52;3.83;;;;;;;4.40;64.14;99271.41;5141901;28;20059;-69
2022/04/10 00:44:09;;;;;;;9.32;3.35;;;;;;;4.40;65.08;99276.66;5127387;28;20051;-69
2022/04/10 00:46:59;;;;;;;8.88;3.80;;;;;;;4.57;64.27;99279.06;5127262;28;20059;-69
2022/04/10 00:49:50;;;;;;;10.10;4.40;;;;;;;4.54;64.97;99284.53;5121334;28;20055;-69
2022/04/10 00:52:45;;;;;;;7.50;3.78;;;;;;;4.21;64.92;99283.09;5107288;29;20062;-69
2022/04/10 00:55:35;;;;;;;7.38;3.83;;;;;;;4.18;65.26;99287.69;5121674;29;20051;-69
2022/04/10 00:58:27;;;;;;;7.40;4.25;;;;;;;4.15;64.35;99288.72;5130386;28;20094;-68
2022/04/10 01:01:17;;;;;;;12.85;4.78;;;;;;;4.18;65.92;99278.03;5127425;28;20081;-69
2022/04/10 01:04:07;;;;;;;9.50;4.68;;;;;;;4.28;65.42;99288.81;5127229;28;20167;-69
2022/04/10 01:07:00;;;;;;;9.18;4.72;;;;;;;4.41;65.18;99296.75;5110964;28;20066;-69
2022/04/10 01:09:51;;;;;;;11.10;4.85;;;;;;;4.10;65.27;99282.91;5130912;28;20109;-69
2022/04/10 01:12:42;;;;;;;10.10;5.25;;;;;;;4.30;65.59;99289.53;5145423;28;20062;-69
2022/04/10 01:15:42;;;;;;;9.80;5.07;;;;;;;4.28;65.75;99295.84;5130546;28;20141;-69
2022/04/10 01:18:33;;;;;;;9.90;4.75;;;;;;;4.25;65.61;99296.88;5130802;28;20486;-69
2022/04/10 01:21:25;;;;;;;11.98;5.18;;;;;;;4.28;65.49;99295.84;5144049;28;20082;-69
2022/04/10 01:24:19;;;;;;;10.73;5.72;;;;;;;4.32;66.02;99308.66;5130739;28;20063;-69
2022/04/10 01:27:10;;;;;;;12.63;5.60;;;;;;;4.46;66.13;99308.63;5145326;28;20105;-69
2022/04/10 01:30:01;;;;;;;8.60;5.15;;;;;;;4.54;66.35;99312.56;5110683;29;20461;-69
2022/04/10 01:32:52;;;;;;;12.43;5.68;;;;;;;5.11;65.58;99307.09;5110921;29;20608;-69
2022/04/10 01:35:44;;;;;;;12.88;5.25;;;;;;;5.04;65.73;99311.91;5129969;28;20468;-69
2022/04/10 01:38:39;;;;;;;9.70;4.27;;;;;;;4.65;66.64;99302.22;5110632;29;20083;-69
2022/04/10 01:41:30;;;;;;;11.23;5.40;;;;;;;5.55;64.11;99296.22;5097064;29;20294;-69
2022/04/10 01:44:23;;;;;;;10.38;5.75;;;;;;;5.48;63.40;99304.63;5110543;28;20189;-69
2022/04/10 01:47:14;;;;;;;11.50;4.55;;;;;;;5.03;64.91;99304.94;5110675;29;20536;-69
2022/04/10 01:50:05;;;;;;;8.70;4.95;;;;;;;5.44;63.38;99297.91;5129971;28;20062;-69
2022/04/10 01:52:56;;;;;;;8.27;4.40;;;;;;;5.27;63.83;99306.91;5174485;23;20442;-70
2022/04/10 01:55:49;;;;;;;9.48;5.03;;;;;;;4.93;64.89;99309.13;5169352;28;20053;-70
2022/04/10 01:58:42;;;;;;;6.95;4.50;;;;;;;4.83;65.44;99310.69;5160961;28;20049;-70
2022/04/10 02:01:35;;;;;;;11.18;4.55;;;;;;;4.81;65.34;99291.56;5169342;28;20062;-71
2022/04/10 02:04:25;;;;;;;6.90;3.80;;;;;;;5.11;64.35;99310.56;5184690;28;20056;-70
2022/04/10 02:07:16;;;;;;;8.18;4.20;;;;;;;4.99;64.23;99302.63;5169388;28;20098;-71
2022/04/10 02:10:07;;;;;;;10.27;3.92;;;;;;;5.17;64.19;99309.31;5170352;28;20061;-70
2022/04/10 02:12:58;;;;;;;12.45;4.32;;;;;;;5.16;63.54;99304.97;5162614;28;20076;-71
2022/04/10 02:15:49;;;;;;;9.07;4.68;;;;;;;5.09;63.35;99298.44;5162624;28;20050;-69
2022/04/10 02:18:39;;;;;;;9.23;3.90;;;;;;;4.99;64.77;99305.25;5151506;28;20054;-70
2022/04/10 02:21:31;;;;;;;13.98;4.80;;;;;;;5.21;63.03;99302.91;5168362;28;20069;-70
2022/04/10 02:24:21;;;;;;;8.30;4.00;;;;;;;4.65;65.87;99303.06;5169249;28;20092;-70
2022/04/10 02:27:11;;;;;;;9.02;4.15;;;;;;;4.85;64.77;99309.63;5169045;28;20131;-70
2022/04/10 02:30:01;;;;;;;10.05;4.47;;;;;;;4.77;65.13;99295.31;5169358;28;20139;-70
2022/04/10 02:32:53;;;;;;;6.97;4.20;;;;;;;5.12;63.51;99306.97;5169723;28;20056;-71
2022/04/10 02:35:45;;;;;;;8.55;4.53;;;;;;;4.99;63.49;99287.72;5168698;28;20153;-70
2022/04/10 02:38:35;;;;;;;8.30;4.07;;;;;;;4.86;64.68;99313.94;5150434;28;20053;-70
2022/04/10 02:41:26;;;;;;;13.70;4.78;;;;;;;4.95;64.20;99310.72;5169181;28;20510;-70
2022/04/10 02:44:19;;;;;;;13.52;4.50;;;;;;;4.98;64.18;99314.09;5169430;28;20053;-70
2022/04/10 02:47:09;;;;;;;17.02;5.90;;;;;;;4.67;65.15;99316.94;5168380;28;20061;-71
2022/04/10 02:50:00;;;;;;;11.80;4.25;;;;;;;4.94;64.99;99322.19;5169127;28;20056;-70
2022/04/10 02:52:52;;;;;;;10.10;4.70;;;;;;;5.04;63.83;99316.34;5169099;28;20548;-70
2022/04/10 02:55:42;;;;;;;14.18;5.32;;;;;;;4.71;65.41;99328.09;5184216;28;20064;-70
2022/04/10 02:58:32;;;;;;;7.53;4.40;;;;;;;4.67;65.66;99319.56;5169402;28;20423;-70
2022/04/10 03:01:25;;;;;;;10.15;5.03;;;;;;;4.80;64.63;99327.50;5163613;28;20105;-71
2022/04/10 03:04:17;;;;;;;12.05;5.00;;;;;;;4.66;64.32;99309.97;5149052;28;20181;-70
2022/04/10 03:07:07;;;;;;;8.05;4.75;;;;;;;4.83;63.99;99324.66;5165848;28;20054;-70
2022/04/10 03:09:57;;;;;;;11.10;4.90;;;;;;;4.78;63.88;99326.75;5169080;28;20049;-71
2022/04/10 03:12:48;;;;;;;9.27;4.93;;;;;;;4.76;64.24;99310.22;5168658;28;20137;-71
2022/04/10 03:15:39;;;;;;;13.57;5.55;;;;;;;4.41;65.45;99334.34;5183084;28;20089;-71
2022/04/10 03:18:29;;;;;;;9.10;4.70;;;;;;;4.57;64.77;99328.97;5168758;28;20057;-71
2022/04/10 03:21:19;;;;;;;16.33;5.38;;;;;;;4.51;64.94;99329.34;5183347;28;20428;-70
2022/04/10 03:24:09;;;;;;;11.32;5.22;;;;;;;4.53;64.99;99327.47;5168204;28;20064;-70
2022/04/10 03:26:59;;;;;;;10.27;5.10;;;;;;;4.55;65.22;99325.59;5168323;28;20411;-69
2022/04/10 03:29:50;;;;;;;11.63;5.10;;;;;;;4.64;64.63;99322.38;5168496;28;20056;-72
2022/04/10 03:32:41;;;;;;;13.05;4.80;;;;;;;4.51;65.18;99333.78;5168479;28;20073;-70
2022/04/10 03:35:33;;;;;;;12.45;5.22;;;;;;;4.42;64.30;99320.28;5167407;28;20065;-70
2022/04/10 03:38:26;;;;;;;11.73;5.13;;;;;;;4.25;65.70;99344.13;5168326;28;20503;-70
2022/04/10 03:41:15;;;;;;;10.90;5.00;;;;;;;4.51;64.53;99342.50;5182881;28;20698;-70
2022/04/10 03:44:07;;;;;;;9.48;5.25;;;;;;;4.21;65.33;99353.97;5167876;28;20060;-71
2022/04/10 03:46:57;;;;;;;11.32;5.65;;;;;;;4.37;65.61;99353.00;5182624;28;20088;-69
2022/04/10 03:49:50;;;;;;;9.38;4.85;;;;;;;4.28;65.12;99356.22;5168315;28;20045;-70
2022/04/10 03:52:40;;;;;;;15.77;5.78;;;;;;;4.24;65.61;99353.78;5168040;28;20115;-70
2022/04/10 03:55:32;;;;;;;11.75;5.38;;;;;;;4.10;65.52;99372.13;5182679;28;20053;-70
2022/04/10 03:58:25;;;;;;;11.88;6.20;;;;;;;4.31;66.33;99364.75;5168003;28;20060;-71
2022/04/10 04:01:15;;;;;;;14.93;6.03;;;;;;;4.40;64.71;99368.56;5167980;28;20419;-70
2022/04/10 04:04:05;;;;;;;10.55;5.38;;;;;;;4.15;65.47;99351.72;5167630;28;20058;-71
2022/04/10 04:06:55;;;;;;;13.20;6.00;;;;;;;4.30;65.14;99383.19;5167380;28;20087;-71
2022/04/10 04:09:48;;;;;;;19.10;6.18;;;;;;;4.02;65.82;99369.16;5167982;28;20090;-70
2022/04/10 04:12:39;;;;;;;13.65;6.00;;;;;;;4.13;65.86;99377.19;5167773;28;20060;-70
2022/04/10 04:15:30;;;;;;;13.25;5.80;;;;;;;3.76;67.80;99383.81;5182399;28;20057;-71
2022/04/10 04:18:22;;;;;;;9.30;5.90;;;;;;;4.12;66.33;99391.25;5167402;28;20092;-71
2022/04/10 04:21:12;;;;;;;14.27;6.10;;;;;;;4.23;65.80;99393.22;5167315;28;20056;-70
2022/04/10 04:24:07;;;;;;;15.48;6.45;;;;;;;4.70;64.21;99397.31;5167073;28;20060;-70
2022/04/10 04:26:58;;;;;;;10.50;6.57;;;;;;;4.87;64.24;99404.16;5167225;28;20061;-70
2022/04/10 04:29:48;;;;;;;9.55;5.88;;;;;;;4.72;64.55;99406.78;5167233;28;20056;-71
2022/04/10 04:32:39;;;;;;;14.25;6.03;;;;;;;4.70;64.01;99408.69;5153511;28;20180;-70
2022/04/10 04:35:29;;;;;;;10.60;5.63;;;;;;;4.15;65.35;99385.84;5163055;28;20054;-70
2022/04/10 04:38:21;;;;;;;8.43;5.72;;;;;;;4.50;65.70;99416.09;5167067;28;20057;-70
2022/04/10 04:41:12;;;;;;;15.20;6.10;;;;;;;4.69;64.69;99427.97;5167025;28;20089;-70
2022/04/10 04:44:02;;;;;;;9.07;5.97;;;;;;;4.92;64.26;99423.91;5166952;28;20060;-71
2022/04/10 04:46:54;;;;;;;12.73;5.57;;;;;;;4.94;64.01;99429.09;5166892;28;20069;-70
2022/04/10 04:49:45;;;;;;;15.30;6.35;;;;;;;4.69;64.21;99385.13;5166761;28;20528;-71
2022/04/10 04:52:35;;;;;;;10.65;5.57;;;;;;;4.81;64.00;99436.91;5166829;28;20056;-71
2022/04/10 04:55:25;;;;;;;11.23;6.15;;;;;;;4.78;64.85;99436.25;5166904;28;20054;-70
2022/04/10 04:58:16;;;;;;;15.15;6.63;;;;;;;4.60;65.11;99436.47;5166868;28;20050;-70
2022/04/10 05:01:06;;;;;;;11.40;5.93;;;;;;;4.69;63.89;99406.13;5182161;28;20072;-71
2022/04/10 05:03:56;;;;;;;15.57;6.35;;;;;;;4.92;63.53;99442.31;5167074;28;20475;-70
2022/04/10 05:06:47;;;;;;;13.30;6.38;;;;;;;4.80;64.29;99444.84;5166049;28;20056;-71
2022/04/10 05:09:39;;;;;;;14.85;6.63;;;;;;;4.72;64.63;99447.97;5167161;28;20065;-70
2022/04/10 05:12:32;;;;;;;14.32;6.20;;;;;;;4.81;65.15;99457.91;5167014;28;20424;-70
2022/04/10 05:15:24;;;;;;;10.95;5.88;;;;;;;4.67;65.05;99461.41;5166375;28;20064;-71
2022/04/10 05:18:17;;;;;;;10.80;6.82;;;;;;;4.86;64.76;99466.34;5166753;28;20444;-71
2022/04/10 05:21:09;;;;;;;11.77;6.38;;;;;;;4.97;64.84;99475.31;5166688;28;20054;-70
2022/04/10 05:24:00;;;;;;;10.27;6.53;;;;;;;4.90;64.15;99475.72;5166554;28;20120;-71
2022/04/10 05:26:52;;;;;;;15.38;6.57;;;;;;;5.01;64.73;99477.69;5166451;28;20057;-71
2022/04/10 05:29:42;;;;;;;16.70;6.63;;;;;;;5.15;63.71;99476.81;5166327;28;20195;-71
2022/04/10 05:32:32;;;;;;;17.30;8.05;;;;;;;4.91;64.12;99468.69;5166780;28;20061;-70
2022/04/10 05:35:23;;;;;;;14.50;7.05;;;;;;;5.33;63.05;99480.03;5165680;28;20057;-70
2022/04/10 05:38:14;;;;;;;14.68;6.35;;;;;;;4.79;65.26;99485.22;5166687;28;20513;-70
2022/04/10 05:41:04;;;;;;;11.32;6.13;;;;;;;5.19;63.75;99476.50;5166341;28;20148;-69
2022/04/10 05:43:59;;;;;;;10.10;6.18;;;;;;;5.25;63.29;99485.78;5166899;28;20060;-69
2022/04/10 05:46:49;;;;;;;16.90;6.63;;;;;;;4.97;64.83;99493.72;5166442;28;20964;-70
2022/04/10 05:49:43;;;;;;;15.82;7.03;;;;;;;5.30;63.51;99502.13;5170057;28;20057;-70
2022/04/10 05:52:41;;;;;;;12.55;5.97;;;;;;;5.24;64.55;99497.25;5149994;28;20508;-71
2022/04/10 05:55:32;;;;;;;13.32;7.03;;;;;;;5.81;63.13;99499.66;5172576;28;20112;-71
2022/04/10 05:58:28;;;;;;;14.75;6.53;;;;;;;5.69;62.88;99513.63;5170035;28;20131;-70
2022/04/10 06:01:20;;;;;;;10.20;6.15;;;;;;;5.74;63.71;99511.53;5169667;28;20065;-69
2022/04/10 06:04:12;;;;;;;12.60;6.07;;;;;;;5.83;64.47;99512.75;5170272;28;20057;-71
2022/04/10 06:07:03;;;;;;;12.30;6.45;;;;;;;5.62;64.03;99497.41;5169767;28;20060;-71
2022/04/10 06:09:59;;;;;;;14.43;6.57;;;;;;;5.98;64.00;99517.00;5170314;28;20057;-71
2022/04/10 06:12:49;;;;;;;11.70;5.70;;;;;;;6.21;63.18;99518.09;5170185;28;20804;-70
2022/04/10 06:15:40;;;;;;;9.65;5.53;;;;;;;6.58;61.39;99518.22;5169715;28;20057;-71
2022/04/10 06:18:31;;;;;;;17.85;5.50;;;;;;;6.24;62.65;99512.63;5156581;28;20054;-70
2022/04/10 06:21:25;;;;;;;8.73;5.50;;;;;;;6.30;61.42;99520.13;5168902;28;20061;-70
2022/04/10 06:24:15;;;;;;;9.25;5.90;;;;;;;6.18;62.84;99530.63;5169720;28;20065;-70
2022/04/10 06:27:07;;;;;;;15.18;5.80;;;;;;;6.40;62.49;99536.16;5155835;28;20060;-70
2022/04/10 06:29:59;;;;;;;9.82;5.90;;;;;;;6.01;63.27;99537.03;5169365;28;20049;-70
2022/04/10 06:32:52;;;;;;;9.65;5.65;;;;;;;6.42;62.07;99538.66;5156557;28;20058;-71
2022/04/10 06:35:44;;;;;;;11.82;5.82;;;;;;;6.37;62.99;99536.34;5169072;28;20061;-70
2022/04/10 06:38:35;;;;;;;13.68;6.72;;;;;;;6.01;63.38;99540.50;5169661;28;20061;-70
2022/04/10 06:41:36;;;;;;;15.52;7.13;;;;;;;6.39;62.02;99525.69;5168792;28;20535;-70
2022/04/10 06:44:32;;;;;;;13.73;7.00;;;;;;;7.02;61.34;99549.41;5169442;28;20057;-71
2022/04/10 06:47:32;;;;;;;11.05;6.03;;;;;;;7.13;60.10;99545.19;5162718;28;20057;-70
2022/04/10 06:50:25;;;;;;;18.50;6.97;;;;;;;6.95;61.22;99547.28;5168443;28;20187;-70
2022/04/10 06:53:18;;;;;;;12.10;6.32;;;;;;;6.95;61.68;99542.03;5165273;28;20723;-70
2022/04/10 06:56:08;;;;;;;17.00;6.38;;;;;;;7.49;59.91;99547.00;5162911;28;20309;-70
2022/04/10 06:59:01;;;;;;;13.13;6.25;;;;;;;7.44;59.33;99542.03;5148991;28;20543;-70
2022/04/10 07:01:52;;;;;;;11.75;6.18;;;;;;;7.13;60.35;99546.03;5164323;28;20477;-71
2022/04/10 07:04:42;;;;;;;8.60;6.00;;;;;;;6.52;61.58;99560.78;5160206;28;20061;-70
2022/04/10 07:07:32;;;;;;;10.60;5.85;;;;;;;7.13;60.79;99556.56;5174694;28;20705;-69
2022/04/10 07:10:22;;;;;;;12.13;6.22;;;;;;;7.88;58.83;99563.50;5163059;28;20064;-68
2022/04/10 07:13:19;;;;;;;10.43;5.80;;;;;;;7.70;59.72;99561.25;5168011;28;20057;-69
2022/04/10 07:16:09;;;;;;;11.30;5.95;;;;;;;7.84;59.85;99562.03;5167726;28;20085;-69
2022/04/10 07:19:00;;;;;;;11.60;6.00;;;;;;;7.92;58.51;99557.06;5164095;28;20042;-70
2022/04/10 07:25:03;;;;;;;12.45;5.55;;;;;;;6.78;61.85;99570.41;5165105;28;20422;-70
2022/04/10 07:27:53;;;;;;;11.75;6.00;;;;;;;7.28;60.56;99573.09;5165219;28;20581;-70
2022/04/10 07:31:00;;;;;;;8.63;6.05;;;;;;;7.37;59.84;99566.31;5147490;28;20133;-70
2022/04/10 07:33:55;;;;;;;11.80;5.68;;;;;;;7.62;59.27;99573.34;5150495;28;20065;-69
2022/04/10 07:37:08;;;;;;;10.38;5.65;;;;;;;7.76;58.44;99571.38;5172796;28;20689;-72
2022/04/10 07:40:09;;;;;;;9.40;5.88;;;;;;;7.66;58.36;99561.59;5161035;28;20058;-71
2022/04/10 07:42:59;;;;;;;8.40;5.75;;;;;;;8.07;56.85;99568.28;5151543;28;20057;-72
2022/04/10 07:49:28;;;;;;;8.73;5.75;;;;;;;8.18;56.45;99563.03;5164028;28;20049;-71
2022/04/10 07:52:25;;;;;;;11.20;5.90;;;;;;;8.10;57.42;99574.16;5144558;28;20065;-68
2022/04/10 07:55:21;;;;;;;9.65;5.85;;;;;;;8.80;56.07;99572.47;5165610;28;20054;-68
2022/04/10 07:58:12;;;;;;;12.00;5.88;;;;;;;8.73;55.24;99584.47;5167154;28;20050;-69
2022/04/10 08:01:03;;;;;;;11.57;5.95;;;;;;;8.49;56.39;99584.53;5167077;28;20125;-68
2022/04/10 08:03:53;;;;;;;11.88;5.63;;;;;;;9.00;53.57;99586.78;5147768;28;20567;-69
2022/04/10 08:07:05;;;;;;;9.60;6.10;;;;;;;9.15;53.96;99593.53;5173708;28;20097;-68
2022/04/10 08:09:56;;;;;;;16.98;5.68;;;;;;;9.25;54.57;99589.19;5167823;28;20081;-70
2022/04/10 08:12:47;;;;;;;7.47;5.10;;;;;;;8.33;55.46;99595.38;5176796;28;20054;-70
2022/04/10 08:15:37;;;;;;;9.18;5.55;;;;;;;7.29;56.79;99609.94;5181688;28;20057;-68
2022/04/10 08:18:32;;;;;;;17.13;6.20;;;;;;;8.44;56.20;99603.38;5181625;28;20056;-69
2022/04/10 08:21:23;;;;;;;12.07;5.65;;;;;;;9.45;53.59;99616.75;5182239;28;20045;-68
2022/04/10 08:24:12;;;;;;;8.02;5.53;;;;;;;9.33;53.40;99612.41;5180887;28;20192;-69
2022/04/10 08:27:03;;;;;;;8.65;5.18;;;;;;;9.32;51.81;99603.63;5181102;28;20069;-70
2022/04/10 08:29:53;;;;;;;10.82;5.65;;;;;;;8.79;54.32;99599.88;5181250;28;20509;-70
2022/04/10 08:32:44;;;;;;;9.65;5.40;;;;;;;9.92;52.83;99611.25;5165146;28;20057;-70
2022/04/10 08:35:34;;;;;;;12.60;5.53;;;;;;;8.77;52.77;99615.84;5180731;28;20188;-69
2022/04/10 08:38:24;;;;;;;10.95;4.90;;;;;;;9.31;51.36;99619.63;5182204;28;20139;-69
2022/04/10 08:41:14;;;;;;;10.43;5.07;;;;;;;9.13;51.26;99612.16;5165229;28;20171;-73
2022/04/10 08:44:05;;;;;;;11.32;5.13;;;;;;;9.61;51.22;99611.06;5182084;28;20057;-70
2022/04/10 08:46:59;;;;;;;10.65;5.32;;;;;;;9.11;51.10;99611.44;5181892;28;20060;-71
2022/04/10 08:49:50;;;;;;;;;;;;;;;9.69;51.12;99619.22;5182882;28;20412;-71
2022/04/10 08:52:40;;;;;;;9.63;5.05;;;;;;;9.76;49.60;99617.78;5181941;28;19944;-72
2022/04/10 08:55:31;;;;;;;9.18;5.60;;;;;;;9.89;52.24;99631.72;5179477;28;20050;-69
2022/04/10 08:58:21;;;;;;;7.35;5.07;;;;;;;10.39;51.08;99630.38;5178694;28;20669;-68
2022/04/10 09:01:20;;;;;;;7.50;5.10;;;;;;;10.73;48.39;99629.25;5180572;28;20050;-70
2022/04/10 09:04:10;;;;;;;8.88;5.13;;;;;;;9.58;49.20;99619.25;5180368;28;20137;-68
2022/04/10 09:07:07;;;;;;;8.35;5.40;;;;;;;11.33;50.25;99610.88;5177131;28;20053;-71
2022/04/10 09:09:57;;;;;;;10.57;5.18;;;;;;;10.41;49.07;99628.47;5173110;28;20471;-70
2022/04/10 09:12:47;;;;;;;11.20;4.53;;;;;;;10.64;47.83;99616.78;5169462;28;20054;-68
2022/04/10 09:15:38;;;;;;;15.43;5.80;;;;;;;11.20;49.44;99608.44;5171567;28;20503;-69
2022/04/10 09:18:29;;;;;;;9.93;4.80;;;;;;;11.35;46.83;99621.34;5174595;28;20148;-68
2022/04/10 09:21:22;;;;;;;10.00;4.53;;;;;;;10.52;48.82;99615.13;5170258;28;20419;-67
2022/04/10 09:24:14;;;;;;;9.25;4.50;;;;;;;11.65;46.68;99620.47;5170696;28;20050;-70
2022/04/10 09:27:05;;;;;;;9.93;4.85;;;;;;;10.70;48.27;99620.72;5172396;28;20496;-68
2022/04/10 09:29:55;;;;;;;9.60;4.30;;;;;;;10.40;48.28;99630.28;5168521;28;20148;-69
2022/04/10 09:32:47;;;;;;;7.90;4.63;;;;;;;11.60;47.13;99628.84;5183284;28;20109;-67
2022/04/10 09:35:43;;;;;;;7.78;4.30;;;;;;;11.64;46.21;99606.34;5185251;28;20086;-68
2022/04/10 09:38:34;;;;;;;8.52;5.05;;;;;;;11.36;46.04;99602.66;5169176;28;20459;-68
2022/04/10 09:41:24;;;;;;;8.98;4.28;;;;;;;10.84;47.53;99616.91;5185145;28;20050;-68
2022/04/10 09:44:20;;;;;;;10.20;4.65;;;;;;;10.63;47.13;99614.22;5184446;28;20155;-68
2022/04/10 09:47:11;;;;;;;7.88;4.22;;;;;;;10.95;46.37;99599.09;5169897;28;20781;-70
2022/04/10 09:50:05;;;;;;;9.82;4.63;;;;;;;11.18;47.16;99612.19;5184290;28;20077;-70
2022/04/10 09:52:56;;;;;;;8.70;4.15;;;;;;;10.79;46.50;99607.53;5184913;28;20159;-69
2022/04/10 09:55:55;;;;;;;6.45;3.78;;;;;;;10.39;46.23;99617.13;5184382;28;20520;-71
2022/04/10 09:58:48;;;;;;;9.15;3.95;;;;;;;10.48;47.41;99625.16;5184625;28;20057;-70
2022/04/10 10:01:38;;;;;;;8.23;4.43;;;;;;;10.75;47.04;99623.81;5184473;28;20512;-68
2022/04/10 10:04:29;;;;;;;6.60;3.70;;;;;;;9.23;50.95;99627.31;5184795;28;20062;-68
2022/04/10 10:07:20;;;;;;;7.70;4.38;;;;;;;9.34;51.73;99641.41;5176108;28;20061;-70
2022/04/10 10:10:14;;;;;;;9.15;4.85;;;;;;;7.47;55.36;99649.16;5179834;28;20553;-69
2022/04/10 10:13:06;;;;;;;8.53;5.17;;;;;;;7.35;57.30;99636.81;5183295;28;20057;-69
2022/04/10 10:16:00;;;;;;;13.50;5.72;;;;;;;8.65;55.17;99633.50;5184356;28;20061;-68
2022/04/10 10:18:51;;;;;;;12.75;6.15;;;;;;;7.98;57.26;99633.19;5183649;28;20463;-70
2022/04/10 10:21:42;;;;;;;10.48;5.07;;;;;;;7.75;56.71;99625.13;5181942;28;20053;-70
2022/04/10 10:24:43;;;;;;;12.02;5.38;;;;;;;8.12;57.25;99645.38;5183664;28;20053;-70
2022/04/10 10:27:52;;;;;;;11.77;6.10;;;;;;;7.73;59.04;99642.84;5183661;28;20057;-69
2022/04/10 10:30:49;;;;;;;13.27;5.97;;;;;;;8.00;58.89;99636.53;5182852;28;20071;-69
2022/04/10 10:33:47;;;;;;;11.02;5.95;;;;;;;7.61;57.95;99637.59;5180993;28;20523;-69
2022/04/10 10:36:37;;;;;;;11.98;5.80;;;;;;;8.82;57.62;99626.91;5182050;28;20077;-69
2022/04/10 10:39:33;;;;;;;13.43;6.50;;;;;;;9.41;58.17;99610.84;5182563;28;20099;-69
2022/04/10 10:42:23;;;;;;;16.58;6.95;;;;;;;10.19;54.35;99640.78;5179882;28;20046;-71
2022/04/10 10:45:33;;;;;;;10.45;5.50;;;;;;;10.89;52.97;99630.59;5181786;28;20057;-70
2022/04/10 10:48:32;;;;;;;8.52;5.72;;;;;;;10.92;51.53;99631.19;5182212;28;20056;-71
2022/04/10 10:51:25;;;;;;;9.88;5.95;;;;;;;11.89;52.20;99625.47;5181850;28;20057;-69
2022/04/10 10:54:20;;;;;;;11.27;5.38;;;;;;;12.25;50.78;99620.47;5182996;28;20053;-69
2022/04/10 10:57:41;;;;;;;8.63;4.80;;;;;;;11.85;48.81;99621.41;5179622;28;20061;-71
2022/04/10 11:00:37;;;;;;;9.65;4.82;;;;;;;11.03;48.51;99622.34;5179866;28;20230;-70
2022/04/10 11:03:29;;;;;;;10.57;5.03;;;;;;;11.47;47.51;99609.66;5181720;28;20467;-70
2022/04/10 11:06:20;;;;;;;11.85;5.07;;;;;;;10.54;48.86;99618.50;5180536;28;20060;-71
2022/04/10 11:09:22;;;;;;;12.32;5.13;;;;;;;10.29;50.44;99619.69;5182382;28;20057;-69
2022/04/10 11:12:13;;;;;;;11.68;5.70;;;;;;;10.68;47.65;99607.56;5173702;28;20057;-69
2022/04/10 11:15:25;;;;;;;12.65;6.00;;;;;;;10.47;48.25;99617.34;5174057;28;20519;-70
2022/04/10 11:18:35;;;;;;;14.82;5.68;;;;;;;10.11;49.31;99608.78;5174046;28;20073;-69
2022/04/10 11:21:27;;;;;;;17.85;6.40;;;;;;;10.66;49.56;99601.59;5176063;28;20065;-70
2022/04/10 11:24:23;;;;;;;12.85;5.57;;;;;;;9.40;51.11;99606.53;5166171;28;20129;-70
2022/04/10 11:27:33;;;;;;;14.40;5.70;;;;;;;10.02;49.13;99598.94;5162744;28;20198;-70
2022/04/10 11:30:40;;;;;;;11.18;5.40;;;;;;;9.32;50.24;99608.91;5176062;28;20512;-70
2022/04/10 11:33:49;;;;;;;10.48;5.65;;;;;;;8.83;52.52;99598.66;5177512;28;20060;-69
2022/04/10 11:36:49;;;;;;;11.52;5.63;;;;;;;10.03;51.40;99605.91;5181427;28;20052;-69
2022/04/10 11:39:40;;;;;;;8.30;5.40;;;;;;;10.31;49.75;99589.44;5181354;28;20415;-70
2022/04/10 11:42:31;;;;;;;10.40;6.25;;;;;;;10.24;50.41;99598.03;5182365;28;20057;-69
2022/04/10 11:45:31;;;;;;;11.02;5.90;;;;;;;9.62;50.42;99596.88;5167096;28;20061;-70
2022/04/10 11:48:25;;;;;;;7.95;4.22;;;;;;;7.46;55.99;99597.34;5182283;28;20057;-71
2022/04/10 11:51:15;;;;;;;10.82;4.53;;;;;;;6.90;60.99;99642.53;5180621;28;20041;-69
2022/04/10 11:54:05;;;;;;;11.65;4.60;;;;;;;7.90;58.85;99636.38;5169667;28;20064;-69
2022/04/10 11:56:58;;;;;;;6.22;3.80;;;;;;;7.34;60.18;99614.88;5159986;28;20115;-69
2022/04/10 11:59:48;;;;;;;20.17;9.20;;;;;;;8.60;56.53;99597.78;5175361;28;20064;-71
2022/04/10 12:02:38;;;;;;;9.27;5.00;;;;;;;8.99;57.38;99604.47;5175460;28;20056;-68
2022/04/10 12:05:30;;;;;;;9.70;4.93;;;;;;;9.67;56.95;99605.28;5173926;28;20461;-68
2022/04/10 12:08:21;;;;;;;11.23;5.50;;;;;;;9.77;57.35;99606.22;5172717;28;20115;-68
2022/04/10 12:11:11;;;;;;;9.02;4.53;;;;;;;9.31;57.99;99612.53;5162003;28;20202;-75
2022/04/10 12:14:16;;;;;;;7.90;5.35;;;;;;;10.09;56.59;99631.91;5171470;28;20054;-72
2022/04/10 12:17:18;;;;;;;9.48;5.40;;;;;;;8.26;60.57;99634.63;5171472;28;20200;-72
2022/04/10 12:20:09;;;;;;;6.20;4.32;;;;;;;6.94;65.09;99653.72;5172297;28;20151;-72
2022/04/10 12:22:59;;;;;;;9.38;4.60;;;;;;;6.24;66.47;99625.03;5176932;28;20136;-71
2022/04/10 12:25:51;;;;;;;9.82;4.70;;;;;;;6.83;65.83;99643.91;5180529;28;20167;-69
2022/04/10 12:28:44;;;;;;;7.30;4.95;;;;;;;7.80;62.97;99640.63;5182272;28;20057;-70
2022/04/10 12:31:35;;;;;;;8.30;4.33;;;;;;;7.74;62.48;99643.69;5167112;28;20048;-70
2022/04/10 12:34:35;;;;;;;8.05;4.25;;;;;;;8.46;60.46;99636.66;5182006;28;20327;-71
2022/04/10 12:37:27;;;;;;;6.47;4.10;;;;;;;8.66;58.66;99619.31;5181136;28;20049;-69
2022/04/10 12:40:25;;;;;;;5.03;3.42;;;;;;;8.27;60.81;99623.09;5181541;28;20100;-69
2022/04/10 12:43:15;;;;;;;5.78;3.42;;;;;;;9.39;59.93;99618.06;5177719;28;20172;-71
2022/04/10 12:46:10;;;;;;;8.50;3.28;;;;;;;10.28;55.52;99602.97;5179679;28;20180;-70
2022/04/10 12:49:11;;;;;;;5.40;3.65;;;;;;;10.49;54.94;99602.97;5179525;28;20049;-70
2022/04/10 12:52:08;;;;;;;9.00;4.03;;;;;;;10.70;53.58;99595.03;5179135;28;20054;-69
2022/04/10 12:55:00;;;;;;;7.45;3.95;;;;;;;9.46;55.69;99599.03;5181460;28;20093;-69
2022/04/10 12:58:03;;;;;;;9.35;4.45;;;;;;;9.88;55.09;99590.31;5177819;28;20530;-68
2022/04/10 13:00:54;;;;;;;6.38;3.75;;;;;;;8.61;57.18;99596.81;5184819;28;20181;-69
2022/04/10 13:03:48;;;;;;;6.25;4.10;;;;;;;9.17;55.40;99596.88;5183363;28;20092;-69
2022/04/10 13:06:49;;;;;;;5.85;4.13;;;;;;;9.83;54.62;99616.34;5181525;28;20109;-69
2022/04/10 13:09:39;;;;;;;13.00;4.63;;;;;;;8.77;57.75;99612.34;5183642;28;20121;-69
2022/04/10 13:12:31;;;;;;;8.73;4.35;;;;;;;9.05;57.00;99595.22;5181920;28;20050;-68
2022/04/10 13:15:30;;;;;;;8.43;4.50;;;;;;;9.91;53.86;99604.28;5180907;28;20105;-69
2022/04/10 13:18:28;;;;;;;7.38;3.22;;;;;;;9.95;52.23;99598.59;5178803;28;20057;-71
2022/04/10 13:21:18;;;;;;;4.88;3.13;;;;;;;9.67;53.10;99591.19;5180252;28;20057;-70
2022/04/10 13:24:09;;;;;;;6.63;3.10;;;;;;;9.44;53.85;99578.00;5184325;28;20192;-69
2022/04/10 13:26:59;;;;;;;6.88;2.83;;;;;;;10.11;53.59;99590.22;5182529;28;20180;-71
2022/04/10 13:29:50;;;;;;;5.18;2.90;;;;;;;10.14;53.40;99589.97;5182539;28;20534;-70
2022/04/10 13:32:40;;;;;;;7.35;2.75;;;;;;;10.12;53.12;99586.59;5180720;28;20431;-70
2022/04/10 13:35:30;;;;;;;6.03;2.63;;;;;;;10.20;52.11;99576.22;5182581;28;20112;-72
2022/04/10 13:38:20;;;;;;;6.78;2.72;;;;;;;10.46;51.59;99554.66;5180570;28;20053;-70
2022/04/10 13:41:13;;;;;;;6.80;2.60;;;;;;;10.15;49.37;99583.72;5178433;28;20053;-69
2022/04/10 13:44:07;;;;;;;4.28;2.33;;;;;;;10.55;50.48;99583.91;5180327;28;20148;-69